Terminal Aerodrome Forecast
Issued by NWS La Crosse, WI

Home | Current Version | Previous Version | Text Only | Print | Product List | Glossary On
Versions: 1 2 3 4 5 6 7 8 9 10 11 12 13 14 15 16 17 18 19 20 21 22 23
000
FTUS43 KARX 192336
TAFLSE
TAF
KLSE 192336Z 2000/2024 14007KT P6SM BKN200
     FM200500 14009KT P6SM BKN200 WS017/19040KT
     FM201200 15010KT P6SM BKN150
     FM201600 15012KT P6SM OVC025
     FM201700 17013G22KT 3SM SHRA BR OVC009=

USA.gov is the U.S. government's official web portal to all federal, state and local government web resources and services.